Goldboro, Canada
Current Conditions -  °F | °C
As of 8:02 AM on Thursday 29 Jan 2015 (Local Time) from CYPD Reporting Station
NA  
Wind Chill: -13°   Ceiling: NA
Heat Index: -6°   Visibility: NA
Dew Point: -8°   Wind: 15mph
Humidity: 86%   Direction: 310°NW
Pressure: 30.07"   Gusts: 23mph
Location:  45.18°N, 61.65°W
Report Text: CYPD 291202Z AUTO 31013G20KT M06/M08 A3007 RMK CLD MISG WX MISG VIS MISG ICG MISG SLP190
Loading
Personal Weather Stations






























Interactive Weather Map New forecast layout! Learn more

10-Day Weather Forecast

Advertisements
Track Severe Weather on mobile